Terminal Aerodrome Forecast
Issued by NWS Charleston, WV

Current Version | Previous Version | Graphics & Text | Print | Product List | Glossary On
Versions: 1 2 3 4 5 6 7 8 9 10 11 12 13 14 15 16 17 18 19 20 21 22
000
FTUS41 KRLX 190200 AAA
TAFBKW
TAF AMD
KBKW 190212Z 1902/1924 07005KT P6SM SCT070
     FM190500 12008G16KT P6SM BKN070
     FM190800 12014G24KT P6SM BKN040
     FM191200 12020G32KT 5SM -SHRA OVC025
     FM191600 12020G30KT 4SM -SHRA BR OVC008=

USA.gov is the U.S. government's official web portal to all federal, state and local government web resources and services.